Time,TemperatureF,DewpointF,PressureIn,WindDirection,WindDirectionDegrees,WindSpeedMPH,WindSpeedGustMPH,Humidity,HourlyPrecipIn,Conditions,Clouds,dailyrainin,SoftwareType,DateUTC
2013-01-08 00:00:00,23.8,16.4,29.93,SSW,203,0.0,0.0,73,0.00,,,0.00,WUHU216HW,2013-01-08 05:00:00,
2013-01-08 00:01:00,23.8,16.4,29.93,SSW,203,0.0,0.0,73,0.00,,,0.00,WUHU216HW,2013-01-08 05:01:00,
2013-01-08 00:03:00,23.8,16.4,29.93,SSW,203,0.0,0.0,73,0.00,,,0.00,WUHU216HW,2013-01-08 05:03:00,
2013-01-08 00:08:00,23.8,16.4,29.93,SSW,203,0.0,0.0,73,0.00,,,0.00,WUHU216HW,2013-01-08 05:08:00,
2013-01-08 00:30:00,23.4,16.0,29.92,SSW,203,0.0,0.0,73,0.00,,,0.00,WUHU216HW,2013-01-08 05:30:00,
2013-01-08 00:35:00,23.4,16.0,29.92,SSW,203,0.0,0.0,73,0.00,,,0.00,WUHU216HW,2013-01-08 05:35:00,
2013-01-08 01:00:00,23.0,16.0,29.91,SSE,158,0.0,0.0,74,0.00,,,0.00,WUHU216HW,2013-01-08 06:00:00,
2013-01-08 01:05:00,23.0,16.0,29.91,SSE,158,0.0,0.0,74,0.00,,,0.00,WUHU216HW,2013-01-08 06:05:00,
2013-01-08 01:30:00,22.3,15.6,29.90,SW,225,0.0,0.0,75,0.00,,,0.00,WUHU216HW,2013-01-08 06:30:00,
2013-01-08 01:35:00,22.3,15.6,29.90,SW,225,0.0,0.0,75,0.00,,,0.00,WUHU216HW,2013-01-08 06:35:00,
2013-01-08 02:00:00,22.5,16.0,29.90,SSE,158,0.4,0.4,76,0.00,,,0.00,WUHU216HW,2013-01-08 07:00:00,
2013-01-08 02:05:00,22.5,16.0,29.90,SSE,158,0.4,0.4,76,0.00,,,0.00,WUHU216HW,2013-01-08 07:05:00,
2013-01-08 02:30:00,22.5,16.4,29.90,SE,135,0.0,0.0,77,0.00,,,0.00,WUHU216HW,2013-01-08 07:30:00,
2013-01-08 02:35:00,22.5,16.4,29.90,SE,135,0.0,0.0,77,0.00,,,0.00,WUHU216HW,2013-01-08 07:35:00,
2013-01-08 03:00:00,22.5,16.0,29.90,SE,135,0.0,0.0,76,0.00,,,0.00,WUHU216HW,2013-01-08 08:00:00,
2013-01-08 03:05:00,22.5,16.0,29.90,SE,135,0.0,0.0,76,0.00,,,0.00,WUHU216HW,2013-01-08 08:05:00,
2013-01-08 03:30:00,21.8,15.7,29.89,West,270,0.4,0.4,77,0.00,,,0.00,WUHU216HW,2013-01-08 08:30:00,
2013-01-08 03:35:00,21.8,15.7,29.89,West,270,0.4,0.4,77,0.00,,,0.00,WUHU216HW,2013-01-08 08:35:00,
2013-01-08 04:00:00,22.0,15.9,29.90,West,270,0.0,0.0,77,0.00,,,0.00,WUHU216HW,2013-01-08 09:00:00,
2013-01-08 04:05:00,22.0,15.9,29.90,West,270,0.0,0.0,77,0.00,,,0.00,WUHU216HW,2013-01-08 09:05:00,
2013-01-08 04:30:00,22.1,16.3,29.89,SE,135,0.7,0.7,78,0.00,,,0.00,WUHU216HW,2013-01-08 09:30:00,
2013-01-08 04:35:00,22.1,16.3,29.89,SE,135,0.7,0.7,78,0.00,,,0.00,WUHU216HW,2013-01-08 09:35:00,
2013-01-08 05:00:00,22.3,16.5,29.88,SE,135,0.0,0.0,78,0.00,,,0.00,WUHU216HW,2013-01-08 10:00:00,
2013-01-08 05:05:00,22.3,16.5,29.88,SE,135,0.0,0.0,78,0.00,,,0.00,WUHU216HW,2013-01-08 10:05:00,
2013-01-08 05:30:00,23.6,18.1,29.89,SSW,203,0.7,0.7,79,0.00,,,0.00,WUHU216HW,2013-01-08 10:30:00,
2013-01-08 05:35:00,23.6,18.1,29.89,SSW,203,0.7,0.7,79,0.00,,,0.00,WUHU216HW,2013-01-08 10:35:00,
2013-01-08 06:00:00,22.3,16.5,29.89,SE,135,0.0,0.0,78,0.00,,,0.00,WUHU216HW,2013-01-08 11:00:00,
2013-01-08 06:05:00,22.3,16.5,29.89,SE,135,0.0,0.0,78,0.00,,,0.00,WUHU216HW,2013-01-08 11:05:00,
2013-01-08 06:30:00,22.7,16.8,29.91,SSW,203,0.4,0.4,78,0.00,,,0.00,WUHU216HW,2013-01-08 11:30:00,
2013-01-08 06:35:00,22.7,16.8,29.91,SSW,203,0.4,0.4,78,0.00,,,0.00,WUHU216HW,2013-01-08 11:35:00,
2013-01-08 07:00:00,22.5,16.7,29.92,West,270,0.0,0.0,78,0.00,,,0.00,WUHU216HW,2013-01-08 12:00:00,
2013-01-08 07:05:00,22.5,16.7,29.92,West,270,0.0,0.0,78,0.00,,,0.00,WUHU216HW,2013-01-08 12:05:00,
2013-01-08 07:30:00,22.3,16.5,29.93,SSW,203,0.0,0.0,78,0.00,,,0.00,WUHU216HW,2013-01-08 12:30:00,
2013-01-08 07:35:00,22.3,16.5,29.93,SSW,203,0.0,0.0,78,0.00,,,0.00,WUHU216HW,2013-01-08 12:35:00,
2013-01-08 08:00:00,22.7,16.8,29.93,SSE,158,0.0,0.0,78,0.00,,,0.00,WUHU216HW,2013-01-08 13:00:00,
2013-01-08 08:05:00,22.7,16.8,29.93,SSE,158,0.0,0.0,78,0.00,,,0.00,WUHU216HW,2013-01-08 13:05:00,
2013-01-08 08:30:00,25.0,19.4,29.93,South,180,0.0,0.0,79,0.00,,,0.00,WUHU216HW,2013-01-08 13:30:00,
2013-01-08 08:35:00,25.0,19.4,29.93,South,180,0.0,0.0,79,0.00,,,0.00,WUHU216HW,2013-01-08 13:35:00,
2013-01-08 09:00:00,29.2,23.1,29.93,SSE,158,0.0,0.0,78,0.00,,,0.00,WUHU216HW,2013-01-08 14:00:00,
2013-01-08 09:05:00,29.2,23.1,29.93,SSE,158,0.0,0.0,78,0.00,,,0.00,WUHU216HW,2013-01-08 14:05:00,
2013-01-08 09:30:00,34.2,28.0,29.94,NNE,23,0.4,0.4,78,0.00,,,0.00,WUHU216HW,2013-01-08 14:30:00,
2013-01-08 09:35:00,34.2,28.0,29.94,NNE,23,0.4,0.4,78,0.00,,,0.00,WUHU216HW,2013-01-08 14:35:00,
2013-01-08 10:00:00,37.4,29.9,29.94,SSE,158,0.0,0.0,74,0.00,,,0.00,WUHU216HW,2013-01-08 15:00:00,
2013-01-08 10:05:00,37.4,29.9,29.94,SSE,158,0.0,0.0,74,0.00,,,0.00,WUHU216HW,2013-01-08 15:05:00,
2013-01-08 10:30:00,41.4,32.8,29.95,SE,135,1.1,1.1,71,0.00,,,0.00,WUHU216HW,2013-01-08 15:30:00,
2013-01-08 10:35:00,41.4,32.8,29.95,SE,135,1.1,1.1,71,0.00,,,0.00,WUHU216HW,2013-01-08 15:35:00,
2013-01-08 11:00:00,47.2,34.4,29.93,SSE,158,1.8,1.8,61,0.00,,,0.00,WUHU216HW,2013-01-08 16:00:00,
2013-01-08 11:05:00,47.2,34.4,29.93,SSE,158,1.8,1.8,61,0.00,,,0.00,WUHU216HW,2013-01-08 16:05:00,
2013-01-08 11:30:00,50.6,33.1,29.92,WNW,293,3.4,3.4,51,0.00,,,0.00,WUHU216HW,2013-01-08 16:30:00,
2013-01-08 11:35:00,50.6,33.1,29.92,WNW,293,3.4,3.4,51,0.00,,,0.00,WUHU216HW,2013-01-08 16:35:00,
2013-01-08 12:00:00,50.8,32.9,29.91,South,180,1.8,1.8,50,0.00,,,0.00,WUHU216HW,2013-01-08 17:00:00,
2013-01-08 12:05:00,50.8,32.9,29.91,South,180,1.8,1.8,50,0.00,,,0.00,WUHU216HW,2013-01-08 17:05:00,
2013-01-08 12:30:00,51.7,32.6,29.91,SSE,158,2.7,2.7,48,0.00,,,0.00,WUHU216HW,2013-01-08 17:30:00,
2013-01-08 12:35:00,51.7,32.6,29.91,SSE,158,2.7,2.7,48,0.00,,,0.00,WUHU216HW,2013-01-08 17:35:00,
2013-01-08 13:00:00,55.4,34.3,29.89,SSW,203,2.2,2.2,45,0.00,,,0.00,WUHU216HW,2013-01-08 18:00:00,
2013-01-08 13:05:00,55.4,34.3,29.89,SSW,203,2.2,2.2,45,0.00,,,0.00,WUHU216HW,2013-01-08 18:05:00,
2013-01-08 13:30:00,59.4,36.2,29.89,SSE,158,0.9,0.9,42,0.00,,,0.00,WUHU216HW,2013-01-08 18:30:00,
2013-01-08 13:35:00,59.4,36.2,29.89,SSE,158,0.9,0.9,42,0.00,,,0.00,WUHU216HW,2013-01-08 18:35:00,
2013-01-08 14:00:00,58.3,34.1,29.89,WSW,248,0.7,0.7,40,0.00,,,0.00,WUHU216HW,2013-01-08 19:00:00,
2013-01-08 14:05:00,58.3,34.1,29.89,WSW,248,0.7,0.7,40,0.00,,,0.00,WUHU216HW,2013-01-08 19:05:00,
2013-01-08 14:30:00,60.1,34.3,29.89,West,270,0.4,0.4,38,0.00,,,0.00,WUHU216HW,2013-01-08 19:30:00,
2013-01-08 14:35:00,60.1,34.3,29.89,West,270,0.4,0.4,38,0.00,,,0.00,WUHU216HW,2013-01-08 19:35:00,
2013-01-08 15:00:00,62.5,35.6,29.89,SSW,203,1.3,1.3,37,0.00,,,0.00,WUHU216HW,2013-01-08 20:00:00,
2013-01-08 15:05:00,62.5,35.6,29.89,SSW,203,1.3,1.3,37,0.00,,,0.00,WUHU216HW,2013-01-08 20:05:00,
2013-01-08 15:30:00,69.3,38.1,29.89,SW,225,2.5,2.5,32,0.00,,,0.00,WUHU216HW,2013-01-08 20:30:00,
2013-01-08 15:35:00,69.3,38.1,29.89,SW,225,2.5,2.5,32,0.00,,,0.00,WUHU216HW,2013-01-08 20:35:00,
2013-01-08 16:00:00,72.5,39.4,29.89,SSW,203,0.0,0.0,30,0.00,,,0.00,WUHU216HW,2013-01-08 21:00:00,
2013-01-08 16:05:00,72.5,39.4,29.89,SSW,203,0.0,0.0,30,0.00,,,0.00,WUHU216HW,2013-01-08 21:05:00,
2013-01-08 16:30:00,67.1,36.2,29.90,ESE,113,1.1,1.1,32,0.00,,,0.00,WUHU216HW,2013-01-08 21:30:00,
2013-01-08 16:35:00,67.1,36.2,29.90,ESE,113,1.1,1.1,32,0.00,,,0.00,WUHU216HW,2013-01-08 21:35:00,
2013-01-08 17:00:00,55.1,30.5,29.91,ESE,113,0.0,0.0,39,0.00,,,0.00,WUHU216HW,2013-01-08 22:00:00,
2013-01-08 17:05:00,55.1,30.5,29.91,ESE,113,0.0,0.0,39,0.00,,,0.00,WUHU216HW,2013-01-08 22:05:00,
2013-01-08 17:30:00,49.0,27.9,29.91,SE,135,0.0,0.0,44,0.00,,,0.00,WUHU216HW,2013-01-08 22:30:00,
2013-01-08 17:35:00,49.0,27.9,29.91,SE,135,0.0,0.0,44,0.00,,,0.00,WUHU216HW,2013-01-08 22:35:00,
2013-01-08 18:00:00,44.6,26.6,29.92,NNW,338,0.0,0.0,49,0.00,,,0.00,WUHU216HW,2013-01-08 23:00:00,
2013-01-08 18:05:00,44.6,26.6,29.92,NNW,338,0.0,0.0,49,0.00,,,0.00,WUHU216HW,2013-01-08 23:05:00,
2013-01-08 18:30:00,41.0,25.1,29.92,South,180,0.0,0.0,53,0.00,,,0.00,WUHU216HW,2013-01-08 23:30:00,
2013-01-08 18:35:00,41.0,25.1,29.92,South,180,0.0,0.0,53,0.00,,,0.00,WUHU216HW,2013-01-08 23:35:00,
2013-01-08 19:00:00,38.7,25.1,29.92,SW,225,0.4,0.4,58,0.00,,,0.00,WUHU216HW,2013-01-09 00:00:00,
2013-01-08 19:05:00,38.7,25.1,29.92,SW,225,0.4,0.4,58,0.00,,,0.00,WUHU216HW,2013-01-09 00:05:00,
2013-01-08 19:30:00,36.4,23.9,29.91,SW,225,0.0,0.0,60,0.00,,,0.00,WUHU216HW,2013-01-09 00:30:00,
2013-01-08 19:35:00,36.4,23.9,29.91,SW,225,0.0,0.0,60,0.00,,,0.00,WUHU216HW,2013-01-09 00:35:00,
2013-01-08 20:00:00,34.7,23.4,29.91,WSW,248,0.0,0.0,63,0.00,,,0.00,WUHU216HW,2013-01-09 01:00:00,
2013-01-08 20:05:00,34.7,23.4,29.91,WSW,248,0.0,0.0,63,0.00,,,0.00,WUHU216HW,2013-01-09 01:05:00,
2013-01-08 20:30:00,33.3,23.1,29.91,WSW,248,0.0,0.0,66,0.00,,,0.00,WUHU216HW,2013-01-09 01:30:00,
2013-01-08 20:35:00,33.3,23.1,29.91,WSW,248,0.0,0.0,66,0.00,,,0.00,WUHU216HW,2013-01-09 01:35:00,
2013-01-08 21:00:00,32.2,22.9,29.93,SW,225,0.0,0.0,68,0.00,,,0.00,WUHU216HW,2013-01-09 02:00:00,
2013-01-08 21:05:00,32.2,22.9,29.93,SW,225,0.0,0.0,68,0.00,,,0.00,WUHU216HW,2013-01-09 02:05:00,
2013-01-08 21:30:00,31.0,21.6,29.93,SW,225,0.0,0.0,68,0.00,,,0.00,WUHU216HW,2013-01-09 02:30:00,
2013-01-08 21:35:00,31.0,21.6,29.93,SW,225,0.0,0.0,68,0.00,,,0.00,WUHU216HW,2013-01-09 02:35:00,
2013-01-08 22:00:00,30.2,21.6,29.92,SW,225,0.0,0.0,70,0.00,,,0.00,WUHU216HW,2013-01-09 03:00:00,
2013-01-08 22:05:00,30.2,21.6,29.92,SW,225,0.0,0.0,70,0.00,,,0.00,WUHU216HW,2013-01-09 03:05:00,
2013-01-08 22:10:00,30.2,21.6,29.92,SW,225,0.0,0.0,70,0.00,,,0.00,WUHU216HW,2013-01-09 03:10:00,
2013-01-08 22:30:00,29.2,21.0,29.92,WSW,248,0.0,0.0,71,0.00,,,0.00,WUHU216HW,2013-01-09 03:30:00,
2013-01-08 22:35:00,29.2,21.0,29.92,WSW,248,0.0,0.0,71,0.00,,,0.00,WUHU216HW,2013-01-09 03:35:00,
2013-01-08 23:00:00,28.4,20.9,29.92,SE,135,0.0,0.0,73,0.00,,,0.00,WUHU216HW,2013-01-09 04:00:00,
2013-01-08 23:05:00,28.4,20.9,29.92,SE,135,0.0,0.0,73,0.00,,,0.00,WUHU216HW,2013-01-09 04:05:00,
2013-01-08 23:30:00,28.1,20.9,29.92,SW,225,0.0,0.0,74,0.00,,,0.00,WUHU216HW,2013-01-09 04:30:00,
2013-01-08 23:35:00,28.1,20.9,29.92,SW,225,0.0,0.0,74,0.00,,,0.00,WUHU216HW,2013-01-09 04:35:00,